sensor_id;sensor_type;location;lat;lon;timestamp;pressure;altitude;pressure_sealevel;temperature;humidity
71126;BME280;58785;55.566;38.058;2023-09-07T00:01:55;100695.22;;;11.91;67.50
71126;BME280;58785;55.566;38.058;2023-09-07T00:04:21;100703.38;;;11.90;67.15
71126;BME280;58785;55.566;38.058;2023-09-07T00:06:49;100706.63;;;11.84;67.13
71126;BME280;58785;55.566;38.058;2023-09-07T00:09:16;100713.66;;;11.85;67.06
71126;BME280;58785;55.566;38.058;2023-09-07T00:11:44;100708.31;;;11.85;66.83
71126;BME280;58785;55.566;38.058;2023-09-07T00:14:11;100720.50;;;11.77;67.48
71126;BME280;58785;55.566;38.058;2023-09-07T00:16:36;100703.94;;;11.64;68.16
71126;BME280;58785;55.566;38.058;2023-09-07T00:19:06;100725.44;;;11.72;68.17
71126;BME280;58785;55.566;38.058;2023-09-07T00:21:32;100730.50;;;11.75;67.97
71126;BME280;58785;55.566;38.058;2023-09-07T00:23:58;100722.78;;;11.72;67.77
71126;BME280;58785;55.566;38.058;2023-09-07T00:26:24;100719.81;;;11.75;67.90
71126;BME280;58785;55.566;38.058;2023-09-07T00:28:49;100725.31;;;11.74;68.14
71126;BME280;58785;55.566;38.058;2023-09-07T00:31:15;100729.06;;;11.71;68.57
71126;BME280;58785;55.566;38.058;2023-09-07T00:33:41;100724.88;;;11.69;68.60
71126;BME280;58785;55.566;38.058;2023-09-07T00:36:07;100727.38;;;11.61;68.43
71126;BME280;58785;55.566;38.058;2023-09-07T00:38:32;100735.13;;;11.64;69.04
71126;BME280;58785;55.566;38.058;2023-09-07T00:40:58;100733.84;;;11.58;69.11
71126;BME280;58785;55.566;38.058;2023-09-07T00:43:23;100741.59;;;11.61;68.98
71126;BME280;58785;55.566;38.058;2023-09-07T00:45:49;100739.91;;;11.60;69.07
71126;BME280;58785;55.566;38.058;2023-09-07T00:48:15;100737.81;;;11.54;69.29
71126;BME280;58785;55.566;38.058;2023-09-07T00:50:42;100757.47;;;11.53;69.79
71126;BME280;58785;55.566;38.058;2023-09-07T00:53:09;100746.22;;;11.49;69.85
71126;BME280;58785;55.566;38.058;2023-09-07T00:55:36;100743.81;;;11.46;70.03
71126;BME280;58785;55.566;38.058;2023-09-07T00:58:03;100753.81;;;11.54;69.50
71126;BME280;58785;55.566;38.058;2023-09-07T01:00:29;100756.63;;;11.52;69.90
71126;BME280;58785;55.566;38.058;2023-09-07T01:02:55;100758.72;;;11.49;70.41
71126;BME280;58785;55.566;38.058;2023-09-07T01:05:27;100741.28;;;11.45;70.68
71126;BME280;58785;55.566;38.058;2023-09-07T01:08:00;100747.75;;;11.42;70.30
71126;BME280;58785;55.566;38.058;2023-09-07T01:10:29;100757.34;;;11.55;70.15
71126;BME280;58785;55.566;38.058;2023-09-07T01:12:55;100759.88;;;11.56;69.92
71126;BME280;58785;55.566;38.058;2023-09-07T01:15:20;100762.22;;;11.49;70.21
71126;BME280;58785;55.566;38.058;2023-09-07T01:17:46;100755.19;;;11.39;70.61
71126;BME280;58785;55.566;38.058;2023-09-07T01:20:13;100756.72;;;11.41;70.62
71126;BME280;58785;55.566;38.058;2023-09-07T01:22:42;100760.38;;;11.40;70.76
71126;BME280;58785;55.566;38.058;2023-09-07T01:25:09;100760.53;;;11.39;70.79
71126;BME280;58785;55.566;38.058;2023-09-07T01:27:35;100764.03;;;11.39;70.33
71126;BME280;58785;55.566;38.058;2023-09-07T01:30:01;100773.59;;;11.42;70.51
71126;BME280;58785;55.566;38.058;2023-09-07T01:32:30;100764.31;;;11.36;70.99
71126;BME280;58785;55.566;38.058;2023-09-07T01:34:57;100760.81;;;11.36;70.63
71126;BME280;58785;55.566;38.058;2023-09-07T01:37:23;100770.63;;;11.35;70.80
71126;BME280;58785;55.566;38.058;2023-09-07T01:39:49;100765.00;;;11.29;70.78
71126;BME280;58785;55.566;38.058;2023-09-07T01:42:15;100779.03;;;11.31;71.04
71126;BME280;58785;55.566;38.058;2023-09-07T01:44:41;100769.34;;;11.30;71.03
71126;BME280;58785;55.566;38.058;2023-09-07T01:47:06;100766.25;;;11.25;70.87
71126;BME280;58785;55.566;38.058;2023-09-07T01:49:32;100780.44;;;11.25;70.73
71126;BME280;58785;55.566;38.058;2023-09-07T01:51:58;100771.41;;;11.16;71.35
71126;BME280;58785;55.566;38.058;2023-09-07T01:54:23;100778.44;;;11.17;72.04
71126;BME280;58785;55.566;38.058;2023-09-07T01:56:49;100792.50;;;11.19;72.02
71126;BME280;58785;55.566;38.058;2023-09-07T01:59:14;100791.50;;;11.20;71.97
71126;BME280;58785;55.566;38.058;2023-09-07T02:01:40;100774.91;;;11.07;72.52
71126;BME280;58785;55.566;38.058;2023-09-07T02:04:06;100794.75;;;11.14;72.20
71126;BME280;58785;55.566;38.058;2023-09-07T02:06:32;100784.31;;;11.11;72.15
71126;BME280;58785;55.566;38.058;2023-09-07T02:08:57;100792.59;;;11.08;72.32
71126;BME280;58785;55.566;38.058;2023-09-07T02:11:23;100786.56;;;11.06;72.58
71126;BME280;58785;55.566;38.058;2023-09-07T02:13:49;100792.59;;;11.08;72.42
71126;BME280;58785;55.566;38.058;2023-09-07T02:16:15;100794.84;;;11.03;73.05
71126;BME280;58785;55.566;38.058;2023-09-07T02:18:42;100795.78;;;11.02;72.82
71126;BME280;58785;55.566;38.058;2023-09-07T02:21:12;100803.09;;;11.00;72.99
71126;BME280;58785;55.566;38.058;2023-09-07T02:23:38;100807.72;;;10.98;73.16
71126;BME280;58785;55.566;38.058;2023-09-07T02:26:04;100811.09;;;11.00;73.06
71126;BME280;58785;55.566;38.058;2023-09-07T02:28:30;100809.41;;;10.99;73.62
71126;BME280;58785;55.566;38.058;2023-09-07T02:31:05;100815.88;;;10.97;73.60
71126;BME280;58785;55.566;38.058;2023-09-07T02:33:32;100816.00;;;10.95;74.08
71126;BME280;58785;55.566;38.058;2023-09-07T02:35:58;100807.38;;;10.91;73.82
71126;BME280;58785;55.566;38.058;2023-09-07T02:38:24;100817.13;;;10.92;74.15
71126;BME280;58785;55.566;38.058;2023-09-07T02:40:50;100812.03;;;10.89;74.05
71126;BME280;58785;55.566;38.058;2023-09-07T02:43:16;100818.53;;;10.97;73.90
71126;BME280;58785;55.566;38.058;2023-09-07T02:45:42;100826.53;;;10.97;73.96
71126;BME280;58785;55.566;38.058;2023-09-07T02:48:08;100830.31;;;10.94;74.50
71126;BME280;58785;55.566;38.058;2023-09-07T02:50:34;100829.00;;;10.88;74.42
71126;BME280;58785;55.566;38.058;2023-09-07T02:53:01;100823.25;;;10.83;74.22
71126;BME280;58785;55.566;38.058;2023-09-07T02:55:27;100839.69;;;10.88;74.68
71126;BME280;58785;55.566;38.058;2023-09-07T02:57:53;100843.19;;;10.89;75.07
71126;BME280;58785;55.566;38.058;2023-09-07T03:00:21;100832.09;;;10.84;75.19
71126;BME280;58785;55.566;38.058;2023-09-07T03:02:47;100844.31;;;10.86;74.95
71126;BME280;58785;55.566;38.058;2023-09-07T03:05:15;100842.16;;;10.80;74.91
71126;BME280;58785;55.566;38.058;2023-09-07T03:07:41;100841.19;;;10.81;75.31
71126;BME280;58785;55.566;38.058;2023-09-07T03:10:06;100845.44;;;10.84;75.56
71126;BME280;58785;55.566;38.058;2023-09-07T03:12:33;100841.13;;;10.92;74.94
71126;BME280;58785;55.566;38.058;2023-09-07T03:14:59;100842.53;;;10.97;74.93
71126;BME280;58785;55.566;38.058;2023-09-07T03:17:30;100839.47;;;11.01;74.93
71126;BME280;58785;55.566;38.058;2023-09-07T03:19:56;100845.66;;;11.02;75.19
71126;BME280;58785;55.566;38.058;2023-09-07T03:22:25;100850.41;;;10.98;75.04
71126;BME280;58785;55.566;38.058;2023-09-07T03:24:51;100854.50;;;11.02;75.11
71126;BME280;58785;55.566;38.058;2023-09-07T03:27:17;100860.31;;;11.07;74.58
71126;BME280;58785;55.566;38.058;2023-09-07T03:29:46;100866.53;;;11.17;74.50
71126;BME280;58785;55.566;38.058;2023-09-07T03:32:11;100873.63;;;11.28;74.42
71126;BME280;58785;55.566;38.058;2023-09-07T03:34:37;100880.53;;;11.40;74.86
71126;BME280;58785;55.566;38.058;2023-09-07T03:37:03;100865.16;;;11.54;73.70
71126;BME280;58785;55.566;38.058;2023-09-07T03:39:32;100873.25;;;11.73;73.46
71126;BME280;58785;55.566;38.058;2023-09-07T03:41:58;100872.59;;;11.90;73.43
71126;BME280;58785;55.566;38.058;2023-09-07T03:44:23;100876.44;;;12.07;72.94
71126;BME280;58785;55.566;38.058;2023-09-07T03:46:49;100868.44;;;12.17;72.79
71126;BME280;58785;55.566;38.058;2023-09-07T03:49:15;100871.97;;;12.36;72.10
71126;BME280;58785;55.566;38.058;2023-09-07T03:51:41;100883.66;;;12.55;72.14
71126;BME280;58785;55.566;38.058;2023-09-07T03:54:06;100886.47;;;12.73;71.63
71126;BME280;58785;55.566;38.058;2023-09-07T03:56:32;100889.81;;;12.84;71.40
71126;BME280;58785;55.566;38.058;2023-09-07T03:58:58;100879.22;;;12.92;70.67
71126;BME280;58785;55.566;38.058;2023-09-07T04:01:23;100888.50;;;13.08;70.67
71126;BME280;58785;55.566;38.058;2023-09-07T04:03:49;100890.31;;;13.17;70.27
71126;BME280;58785;55.566;38.058;2023-09-07T04:06:15;100887.50;;;13.18;69.95
71126;BME280;58785;55.566;38.058;2023-09-07T04:08:41;100899.22;;;13.27;69.88
71126;BME280;58785;55.566;38.058;2023-09-07T04:11:07;100903.00;;;13.34;69.64
71126;BME280;58785;55.566;38.058;2023-09-07T04:13:32;100898.44;;;13.44;69.31
71126;BME280;58785;55.566;38.058;2023-09-07T04:15:58;100892.25;;;13.44;69.03
71126;BME280;58785;55.566;38.058;2023-09-07T04:18:24;100913.19;;;13.58;68.62
71126;BME280;58785;55.566;38.058;2023-09-07T04:20:50;100909.22;;;13.62;68.38
71126;BME280;58785;55.566;38.058;2023-09-07T04:23:16;100910.31;;;13.69;67.88
71126;BME280;58785;55.566;38.058;2023-09-07T04:25:41;100905.38;;;13.74;67.76
71126;BME280;58785;55.566;38.058;2023-09-07T04:28:07;100905.03;;;13.87;67.48
71126;BME280;58785;55.566;38.058;2023-09-07T04:30:37;100908.09;;;13.92;67.25
71126;BME280;58785;55.566;38.058;2023-09-07T04:33:03;100918.53;;;13.95;66.88
71126;BME280;58785;55.566;38.058;2023-09-07T04:35:29;100911.88;;;13.99;66.94
71126;BME280;58785;55.566;38.058;2023-09-07T04:37:58;100911.50;;;14.12;66.59
71126;BME280;58785;55.566;38.058;2023-09-07T04:40:24;100903.06;;;14.07;66.16
71126;BME280;58785;55.566;38.058;2023-09-07T04:42:50;100921.81;;;14.34;65.85
71126;BME280;58785;55.566;38.058;2023-09-07T04:45:16;100920.06;;;14.43;65.49
71126;BME280;58785;55.566;38.058;2023-09-07T04:47:41;100922.91;;;14.59;65.11
71126;BME280;58785;55.566;38.058;2023-09-07T04:50:07;100933.06;;;14.65;65.30
71126;BME280;58785;55.566;38.058;2023-09-07T04:52:33;100930.06;;;14.69;64.88
71126;BME280;58785;55.566;38.058;2023-09-07T04:55:00;100929.28;;;14.76;64.83
71126;BME280;58785;55.566;38.058;2023-09-07T04:57:26;100932.19;;;14.83;64.37
71126;BME280;58785;55.566;38.058;2023-09-07T04:59:51;100936.59;;;14.84;64.58
71126;BME280;58785;55.566;38.058;2023-09-07T05:02:17;100943.94;;;14.82;64.34
71126;BME280;58785;55.566;38.058;2023-09-07T05:04:44;100930.91;;;14.87;64.47
71126;BME280;58785;55.566;38.058;2023-09-07T05:07:09;100941.47;;;15.06;63.76
71126;BME280;58785;55.566;38.058;2023-09-07T05:09:35;100933.47;;;15.14;63.65
71126;BME280;58785;55.566;38.058;2023-09-07T05:12:01;100944.63;;;15.28;63.29
71126;BME280;58785;55.566;38.058;2023-09-07T05:14:26;100938.25;;;15.29;63.57
71126;BME280;58785;55.566;38.058;2023-09-07T05:16:52;100930.47;;;15.43;62.87
71126;BME280;58785;55.566;38.058;2023-09-07T05:19:18;100941.22;;;15.69;62.51
71126;BME280;58785;55.566;38.058;2023-09-07T05:21:44;100935.50;;;15.72;62.53
71126;BME280;58785;55.566;38.058;2023-09-07T05:24:12;100945.75;;;15.69;61.80
71126;BME280;58785;55.566;38.058;2023-09-07T05:26:38;100943.31;;;15.58;62.04
71126;BME280;58785;55.566;38.058;2023-09-07T05:29:04;100944.28;;;15.74;61.94
71126;BME280;58785;55.566;38.058;2023-09-07T05:31:30;100953.69;;;15.78;61.42
71126;BME280;58785;55.566;38.058;2023-09-07T05:33:56;100955.59;;;15.86;61.15
71126;BME280;58785;55.566;38.058;2023-09-07T05:36:21;100954.09;;;15.84;60.91
71126;BME280;58785;55.566;38.058;2023-09-07T05:38:47;100954.25;;;15.90;60.74
71126;BME280;58785;55.566;38.058;2023-09-07T05:41:13;100931.44;;;15.94;60.81
71126;BME280;58785;55.566;38.058;2023-09-07T05:43:38;100942.22;;;16.10;60.27
71126;BME280;58785;55.566;38.058;2023-09-07T05:46:06;100946.03;;;15.92;59.81
71126;BME280;58785;55.566;38.058;2023-09-07T05:48:32;100958.00;;;15.97;60.12
71126;BME280;58785;55.566;38.058;2023-09-07T05:50:58;100957.06;;;16.15;59.89
71126;BME280;58785;55.566;38.058;2023-09-07T05:53:23;100959.97;;;16.29;59.78
71126;BME280;58785;55.566;38.058;2023-09-07T05:55:52;100952.38;;;16.25;59.39
71126;BME280;58785;55.566;38.058;2023-09-07T05:58:17;100946.00;;;16.26;58.80
71126;BME280;58785;55.566;38.058;2023-09-07T06:00:43;100954.69;;;16.12;58.73
71126;BME280;58785;55.566;38.058;2023-09-07T06:03:09;100951.16;;;16.11;59.41
71126;BME280;58785;55.566;38.058;2023-09-07T06:05:36;100951.19;;;16.19;59.56
71126;BME280;58785;55.566;38.058;2023-09-07T06:08:02;100961.34;;;16.42;59.20
71126;BME280;58785;55.566;38.058;2023-09-07T06:10:29;100951.97;;;16.54;58.92
71126;BME280;58785;55.566;38.058;2023-09-07T06:12:56;100953.25;;;16.42;58.54
71126;BME280;58785;55.566;38.058;2023-09-07T06:15:22;100951.09;;;16.45;58.25
71126;BME280;58785;55.566;38.058;2023-09-07T06:17:47;100954.13;;;16.58;58.14
71126;BME280;58785;55.566;38.058;2023-09-07T06:20:13;100959.72;;;16.65;57.86
71126;BME280;58785;55.566;38.058;2023-09-07T06:22:39;100969.84;;;16.79;57.29
71126;BME280;58785;55.566;38.058;2023-09-07T06:25:05;100964.97;;;16.83;57.65
71126;BME280;58785;55.566;38.058;2023-09-07T06:27:31;100977.28;;;16.93;57.28
71126;BME280;58785;55.566;38.058;2023-09-07T06:29:57;100973.06;;;16.91;57.45
71126;BME280;58785;55.566;38.058;2023-09-07T06:32:22;100975.59;;;16.84;57.55
71126;BME280;58785;55.566;38.058;2023-09-07T06:34:48;100971.53;;;16.72;57.25
71126;BME280;58785;55.566;38.058;2023-09-07T06:37:14;100978.88;;;16.54;57.57
71126;BME280;58785;55.566;38.058;2023-09-07T06:39:39;100982.38;;;16.46;57.20
71126;BME280;58785;55.566;38.058;2023-09-07T06:42:08;100976.47;;;16.34;57.53
71126;BME280;58785;55.566;38.058;2023-09-07T06:44:35;100972.28;;;16.40;57.72
71126;BME280;58785;55.566;38.058;2023-09-07T06:47:00;100976.00;;;16.47;57.65
71126;BME280;58785;55.566;38.058;2023-09-07T06:49:26;100981.25;;;16.57;57.44
71126;BME280;58785;55.566;38.058;2023-09-07T06:51:56;100987.19;;;16.77;57.30
71126;BME280;58785;55.566;38.058;2023-09-07T06:54:22;100982.69;;;16.93;57.23
71126;BME280;58785;55.566;38.058;2023-09-07T06:56:47;100975.09;;;17.05;56.67
71126;BME280;58785;55.566;38.058;2023-09-07T06:59:13;100984.00;;;17.22;56.61
71126;BME280;58785;55.566;38.058;2023-09-07T07:01:39;100985.84;;;17.13;56.39
71126;BME280;58785;55.566;38.058;2023-09-07T07:04:05;101003.03;;;17.12;56.39
71126;BME280;58785;55.566;38.058;2023-09-07T07:06:31;100978.97;;;17.11;56.46
71126;BME280;58785;55.566;38.058;2023-09-07T07:08:57;100992.63;;;17.34;55.96
71126;BME280;58785;55.566;38.058;2023-09-07T07:11:23;100990.91;;;17.41;55.34
71126;BME280;58785;55.566;38.058;2023-09-07T07:13:48;100988.38;;;17.31;55.47
71126;BME280;58785;55.566;38.058;2023-09-07T07:16:15;100990.91;;;17.33;54.93
71126;BME280;58785;55.566;38.058;2023-09-07T07:18:41;100991.59;;;17.18;55.05
71126;BME280;58785;55.566;38.058;2023-09-07T07:21:07;100995.81;;;17.37;54.92
71126;BME280;58785;55.566;38.058;2023-09-07T07:23:35;100989.53;;;17.53;54.86
71126;BME280;58785;55.566;38.058;2023-09-07T07:26:01;100993.56;;;17.65;54.74
71126;BME280;58785;55.566;38.058;2023-09-07T07:28:27;100999.84;;;17.74;54.36
71126;BME280;58785;55.566;38.058;2023-09-07T07:38:15;100991.50;;;17.84;53.97
71126;BME280;58785;55.566;38.058;2023-09-07T07:40:41;100999.41;;;17.93;53.79
71126;BME280;58785;55.566;38.058;2023-09-07T07:43:08;100996.25;;;17.81;53.54
71126;BME280;58785;55.566;38.058;2023-09-07T07:45:34;100986.00;;;17.77;53.82
71126;BME280;58785;55.566;38.058;2023-09-07T07:48:04;101002.81;;;17.95;53.48
71126;BME280;58785;55.566;38.058;2023-09-07T07:50:39;101000.78;;;17.97;53.18
71126;BME280;58785;55.566;38.058;2023-09-07T07:53:06;101002.28;;;17.92;53.24
71126;BME280;58785;55.566;38.058;2023-09-07T07:55:38;101001.31;;;17.85;52.66
71126;BME280;58785;55.566;38.058;2023-09-07T07:58:08;100992.88;;;17.88;52.97
71126;BME280;58785;55.566;38.058;2023-09-07T08:00:37;100998.56;;;18.01;52.89
71126;BME280;58785;55.566;38.058;2023-09-07T08:03:04;101001.34;;;17.76;52.60
71126;BME280;58785;55.566;38.058;2023-09-07T08:05:33;101007.91;;;17.41;52.95
71126;BME280;58785;55.566;38.058;2023-09-07T08:07:59;100992.44;;;17.27;53.02
71126;BME280;58785;55.566;38.058;2023-09-07T08:10:25;100991.91;;;17.23;52.63
71126;BME280;58785;55.566;38.058;2023-09-07T08:12:54;100981.84;;;17.26;53.16
71126;BME280;58785;55.566;38.058;2023-09-07T08:15:21;100985.00;;;17.45;53.17
71126;BME280;58785;55.566;38.058;2023-09-07T08:17:48;100990.53;;;17.60;52.76
71126;BME280;58785;55.566;38.058;2023-09-07T08:20:14;100996.09;;;17.59;52.80
71126;BME280;58785;55.566;38.058;2023-09-07T08:22:40;100999.66;;;17.75;52.76
71126;BME280;58785;55.566;38.058;2023-09-07T08:25:09;100992.53;;;17.83;52.12
71126;BME280;58785;55.566;38.058;2023-09-07T08:27:35;100994.53;;;17.97;52.01
71126;BME280;58785;55.566;38.058;2023-09-07T08:30:00;101001.34;;;18.24;52.41
71126;BME280;58785;55.566;38.058;2023-09-07T08:32:26;101001.66;;;18.29;51.51
71126;BME280;58785;55.566;38.058;2023-09-07T08:34:52;100984.25;;;17.92;51.18
71126;BME280;58785;55.566;38.058;2023-09-07T08:37:22;100998.09;;;17.81;51.13
71126;BME280;58785;55.566;38.058;2023-09-07T08:39:48;100994.72;;;17.87;50.65
71126;BME280;58785;55.566;38.058;2023-09-07T08:42:14;100985.78;;;17.95;50.69
71126;BME280;58785;55.566;38.058;2023-09-07T08:44:42;100982.44;;;17.85;50.03
71126;BME280;58785;55.566;38.058;2023-09-07T08:47:08;100979.03;;;17.83;50.44
71126;BME280;58785;55.566;38.058;2023-09-07T08:49:35;100976.03;;;17.86;50.51
71126;BME280;58785;55.566;38.058;2023-09-07T08:52:02;100981.41;;;17.94;50.76
71126;BME280;58785;55.566;38.058;2023-09-07T08:54:30;100969.44;;;17.80;50.55
71126;BME280;58785;55.566;38.058;2023-09-07T08:56:57;100980.25;;;17.72;50.35
71126;BME280;58785;55.566;38.058;2023-09-07T08:59:24;100976.06;;;17.69;49.33
71126;BME280;58785;55.566;38.058;2023-09-07T09:01:49;100982.44;;;17.85;49.26
71126;BME280;58785;55.566;38.058;2023-09-07T09:04:15;100988.47;;;17.95;48.59
71126;BME280;58785;55.566;38.058;2023-09-07T09:06:41;100985.38;;;18.06;49.06
71126;BME280;58785;55.566;38.058;2023-09-07T09:09:07;100978.44;;;18.12;48.88
71126;BME280;58785;55.566;38.058;2023-09-07T09:11:32;100970.75;;;17.92;48.97
71126;BME280;58785;55.566;38.058;2023-09-07T09:13:58;100987.97;;;17.83;48.69
71126;BME280;58785;55.566;38.058;2023-09-07T09:16:24;100991.00;;;17.88;47.90
71126;BME280;58785;55.566;38.058;2023-09-07T09:18:52;100982.63;;;17.75;48.15
71126;BME280;58785;55.566;38.058;2023-09-07T09:21:22;100989.16;;;17.89;48.59
71126;BME280;58785;55.566;38.058;2023-09-07T09:23:50;100992.72;;;17.81;48.61
71126;BME280;58785;55.566;38.058;2023-09-07T09:26:16;100983.41;;;17.84;48.78
71126;BME280;58785;55.566;38.058;2023-09-07T09:28:42;100969.81;;;17.77;48.77
71126;BME280;58785;55.566;38.058;2023-09-07T09:31:08;100985.25;;;17.91;48.25
71126;BME280;58785;55.566;38.058;2023-09-07T09:33:42;100984.38;;;18.07;48.33
71126;BME280;58785;55.566;38.058;2023-09-07T09:36:08;100980.75;;;18.23;48.17
71126;BME280;58785;55.566;38.058;2023-09-07T09:38:35;100969.78;;;18.24;47.61
71126;BME280;58785;55.566;38.058;2023-09-07T09:41:05;100974.88;;;18.19;48.08
71126;BME280;58785;55.566;38.058;2023-09-07T09:43:31;100984.25;;;17.92;48.04
71126;BME280;58785;55.566;38.058;2023-09-07T09:45:57;100975.03;;;17.78;48.46
71126;BME280;58785;55.566;38.058;2023-09-07T09:48:27;100978.00;;;17.92;47.54
71126;BME280;58785;55.566;38.058;2023-09-07T09:50:53;100977.81;;;18.01;47.31
71126;BME280;58785;55.566;38.058;2023-09-07T09:53:19;100966.63;;;18.13;47.24
71126;BME280;58785;55.566;38.058;2023-09-07T09:55:50;100978.03;;;18.23;46.53
71126;BME280;58785;55.566;38.058;2023-09-07T09:58:18;100969.91;;;18.31;45.95
71126;BME280;58785;55.566;38.058;2023-09-07T10:00:45;100967.81;;;18.41;45.90
71126;BME280;58785;55.566;38.058;2023-09-07T10:03:31;100969.25;;;18.60;45.74
71126;BME280;58785;55.566;38.058;2023-09-07T10:06:11;100975.28;;;18.62;45.10
71126;BME280;58785;55.566;38.058;2023-09-07T10:08:37;100963.84;;;18.60;45.86
71126;BME280;58785;55.566;38.058;2023-09-07T10:11:11;100976.44;;;18.45;45.93
71126;BME280;58785;55.566;38.058;2023-09-07T10:13:38;100969.19;;;18.06;46.64
71126;BME280;58785;55.566;38.058;2023-09-07T10:16:06;100984.31;;;17.43;46.85
71126;BME280;58785;55.566;38.058;2023-09-07T10:18:37;100989.06;;;17.09;46.22
71126;BME280;58785;55.566;38.058;2023-09-07T10:21:08;100973.88;;;16.83;47.12
71126;BME280;58785;55.566;38.058;2023-09-07T10:23:40;100976.78;;;16.74;46.89
71126;BME280;58785;55.566;38.058;2023-09-07T10:26:11;100965.00;;;17.07;47.00
71126;BME280;58785;55.566;38.058;2023-09-07T10:28:38;100969.84;;;17.44;46.61
71126;BME280;58785;55.566;38.058;2023-09-07T10:33:36;100979.75;;;17.68;46.56
71126;BME280;58785;55.566;38.058;2023-09-07T10:36:03;100968.97;;;17.76;46.70
71126;BME280;58785;55.566;38.058;2023-09-07T10:38:31;100980.78;;;17.75;46.54
71126;BME280;58785;55.566;38.058;2023-09-07T10:40:59;100969.84;;;17.44;46.79
71126;BME280;58785;55.566;38.058;2023-09-07T10:43:26;100972.06;;;17.24;47.02
71126;BME280;58785;55.566;38.058;2023-09-07T10:45:53;100974.75;;;17.08;47.54
71126;BME280;58785;55.566;38.058;2023-09-07T10:48:20;100968.34;;;17.01;47.74
71126;BME280;58785;55.566;38.058;2023-09-07T10:50:47;100954.03;;;17.17;47.62
71126;BME280;58785;55.566;38.058;2023-09-07T10:53:14;100955.84;;;17.41;47.65
71126;BME280;58785;55.566;38.058;2023-09-07T10:55:41;100953.13;;;17.65;47.25
71126;BME280;58785;55.566;38.058;2023-09-07T10:58:09;100953.59;;;17.69;47.52
71126;BME280;58785;55.566;38.058;2023-09-07T11:00:36;100954.47;;;17.61;47.52
71126;BME280;58785;55.566;38.058;2023-09-07T11:03:07;100960.00;;;17.68;48.13
71126;BME280;58785;55.566;38.058;2023-09-07T11:05:36;100968.47;;;17.65;47.85
71126;BME280;58785;55.566;38.058;2023-09-07T11:08:05;100942.19;;;17.50;47.95
71126;BME280;58785;55.566;38.058;2023-09-07T11:10:35;100954.16;;;17.56;47.88
71126;BME280;58785;55.566;38.058;2023-09-07T11:13:03;100953.97;;;17.49;48.30
71126;BME280;58785;55.566;38.058;2023-09-07T11:15:30;100972.69;;;17.43;48.34
71126;BME280;58785;55.566;38.058;2023-09-07T11:17:56;100965.63;;;17.42;47.36
71126;BME280;58785;55.566;38.058;2023-09-07T11:20:25;100951.63;;;17.55;47.36
71126;BME280;58785;55.566;38.058;2023-09-07T11:22:51;100958.16;;;17.76;47.39
71126;BME280;58785;55.566;38.058;2023-09-07T11:25:17;100951.38;;;17.89;47.09
71126;BME280;58785;55.566;38.058;2023-09-07T11:27:44;100970.75;;;17.92;47.12
71126;BME280;58785;55.566;38.058;2023-09-07T11:30:13;100956.94;;;17.87;46.27
71126;BME280;58785;55.566;38.058;2023-09-07T11:32:39;100962.84;;;17.91;46.65
71126;BME280;58785;55.566;38.058;2023-09-07T11:35:06;100979.19;;;17.89;46.71
71126;BME280;58785;55.566;38.058;2023-09-07T11:37:33;100967.56;;;17.89;47.06
71126;BME280;58785;55.566;38.058;2023-09-07T11:40:01;100953.91;;;17.90;47.13
71126;BME280;58785;55.566;38.058;2023-09-07T11:42:27;100954.44;;;17.86;47.22
71126;BME280;58785;55.566;38.058;2023-09-07T11:44:53;100945.13;;;17.88;47.13
71126;BME280;58785;55.566;38.058;2023-09-07T11:47:18;100951.34;;;17.97;47.29
71126;BME280;58785;55.566;38.058;2023-09-07T11:49:44;100956.59;;;17.90;47.05
71126;BME280;58785;55.566;38.058;2023-09-07T11:52:09;100959.13;;;17.84;46.65
71126;BME280;58785;55.566;38.058;2023-09-07T11:54:35;100961.19;;;17.73;46.96
71126;BME280;58785;55.566;38.058;2023-09-07T11:57:02;100954.13;;;17.72;47.27
71126;BME280;58785;55.566;38.058;2023-09-07T11:59:28;100949.38;;;17.83;47.31
71126;BME280;58785;55.566;38.058;2023-09-07T12:01:54;100953.19;;;18.04;46.99
71126;BME280;58785;55.566;38.058;2023-09-07T12:04:20;100938.75;;;18.20;46.35
71126;BME280;58785;55.566;38.058;2023-09-07T12:06:46;100950.31;;;18.37;45.64
71126;BME280;58785;55.566;38.058;2023-09-07T12:09:11;100937.94;;;18.43;45.47
71126;BME280;58785;55.566;38.058;2023-09-07T12:11:37;100928.75;;;18.29;45.40
71126;BME280;58785;55.566;38.058;2023-09-07T12:14:03;100936.19;;;18.27;45.44
71126;BME280;58785;55.566;38.058;2023-09-07T12:16:29;100930.13;;;18.25;45.65
71126;BME280;58785;55.566;38.058;2023-09-07T12:18:56;100923.66;;;18.34;46.16
71126;BME280;58785;55.566;38.058;2023-09-07T12:21:21;100924.38;;;18.51;46.18
71126;BME280;58785;55.566;38.058;2023-09-07T12:23:47;100930.00;;;18.72;45.92
71126;BME280;58785;55.566;38.058;2023-09-07T12:26:13;100923.56;;;18.73;45.83
71126;BME280;58785;55.566;38.058;2023-09-07T12:28:47;100934.22;;;18.75;45.87
71126;BME280;58785;55.566;38.058;2023-09-07T12:31:14;100936.44;;;18.71;45.92
71126;BME280;58785;55.566;38.058;2023-09-07T12:33:40;100940.19;;;18.62;45.46
71126;BME280;58785;55.566;38.058;2023-09-07T12:36:06;100933.22;;;18.45;44.74
71126;BME280;58785;55.566;38.058;2023-09-07T12:38:34;100940.81;;;18.41;44.47
71126;BME280;58785;55.566;38.058;2023-09-07T12:41:00;100925.34;;;18.35;44.27
71126;BME280;58785;55.566;38.058;2023-09-07T12:43:26;100938.50;;;18.38;44.90
71126;BME280;58785;55.566;38.058;2023-09-07T12:45:51;100932.53;;;18.43;44.67
71126;BME280;58785;55.566;38.058;2023-09-07T12:48:17;100927.03;;;18.36;44.77